EPWR

Copernicus Wrocław Airport

Wrocław, Poland
METAR EPWR 201500Z 02008KT CAVOK 03/M05 Q1018
Observed Flight Rules
Feb-20 @ 15:00 UTC (5 hours ago) Visual Flight Rules
Wind Visibility Clouds
20° at 8 knots 10,000+ meters
  • Clear skies
Temperatures Readings
Current 3°C / 37°F
Dewpoint -5°C / 23°F
Humidity 56%
Altimeter 30.06" Hg
Pressure 1018 hPa
Elevation 121
METAR EPWR 201500Z 02008KT CAVOK 03/M05 Q1018
Observed Flight Rules
Feb-20 @ 15:00 UTC
(5 hours ago)
VFR
Wind Visibility
20° at 8 knots 10,000+ meters
Clouds
  • Clear skies
Temperature Dewpoint
3°C / 37°F -5°C / 23°F
Humidity Altimeter Pressure
56% 30.06" Hg 1018 hPa